Ceres, New York
Current Conditions -  °F | °C
As of 3:07 AM on Friday 28 Nov 2014 (Local Time) from KELZ Reporting Station
Overcast Overcast  
Wind Chill:   Ceiling: 3200
Heat Index: 22°   Visibility: 9mi
Dew Point: 15°   Wind: 22mph
Humidity: 75%   Direction: 310°NW
Pressure: 30.09"   Gusts: 31mph
Location:  42°N, 78.27°W
Report Text: KELZ 280807Z AUTO 31019G27KT 9SM SCT025 BKN032 OVC075 M06/M09 A3009 RMK AO2 PK WND 31027/0758 SNE03 P0000 T10561094
Loading
Personal Weather Stations






























Interactive Weather Map New forecast layout! Learn more

10-Day Weather Forecast

Advertisements
Track Severe Weather on mobile